sensor_id;sensor_type;location;lat;lon;timestamp;temperature;humidity
16305;DHT22;8261;47.678;-122.174;2022-07-17T00:01:37;22.00;99.90
16305;DHT22;8261;47.678;-122.174;2022-07-17T00:04:09;22.10;99.90
16305;DHT22;8261;47.678;-122.174;2022-07-17T00:06:45;21.90;99.90
16305;DHT22;8261;47.678;-122.174;2022-07-17T00:09:20;21.90;99.90
16305;DHT22;8261;47.678;-122.174;2022-07-17T00:11:52;21.90;99.90
16305;DHT22;8261;47.678;-122.174;2022-07-17T00:14:39;21.90;99.90
16305;DHT22;8261;47.678;-122.174;2022-07-17T00:17:26;21.80;99.90
16305;DHT22;8261;47.678;-122.174;2022-07-17T00:20:00;21.90;99.90
16305;DHT22;8261;47.678;-122.174;2022-07-17T00:22:34;22.00;99.90
16305;DHT22;8261;47.678;-122.174;2022-07-17T00:25:07;22.10;99.90
16305;DHT22;8261;47.678;-122.174;2022-07-17T00:27:39;22.10;99.90
16305;DHT22;8261;47.678;-122.174;2022-07-17T00:30:17;22.10;99.90
16305;DHT22;8261;47.678;-122.174;2022-07-17T00:32:48;22.10;99.90
16305;DHT22;8261;47.678;-122.174;2022-07-17T00:35:22;22.20;99.90
16305;DHT22;8261;47.678;-122.174;2022-07-17T00:38:01;22.10;99.90
16305;DHT22;8261;47.678;-122.174;2022-07-17T00:40:33;21.90;99.90
16305;DHT22;8261;47.678;-122.174;2022-07-17T00:43:05;21.90;99.90
16305;DHT22;8261;47.678;-122.174;2022-07-17T00:45:59;21.90;99.90
16305;DHT22;8261;47.678;-122.174;2022-07-17T00:48:32;21.70;99.90
16305;DHT22;8261;47.678;-122.174;2022-07-17T00:51:04;21.80;99.90
16305;DHT22;8261;47.678;-122.174;2022-07-17T00:53:41;22.00;99.90
16305;DHT22;8261;47.678;-122.174;2022-07-17T00:56:17;22.10;99.90
16305;DHT22;8261;47.678;-122.174;2022-07-17T00:58:51;22.20;99.90
16305;DHT22;8261;47.678;-122.174;2022-07-17T01:01:24;22.10;99.90
16305;DHT22;8261;47.678;-122.174;2022-07-17T01:03:56;22.10;99.90
16305;DHT22;8261;47.678;-122.174;2022-07-17T01:06:28;22.20;99.90
16305;DHT22;8261;47.678;-122.174;2022-07-17T01:09:10;22.20;99.90
16305;DHT22;8261;47.678;-122.174;2022-07-17T01:11:43;21.80;99.90
16305;DHT22;8261;47.678;-122.174;2022-07-17T01:14:16;21.70;99.90
16305;DHT22;8261;47.678;-122.174;2022-07-17T01:16:48;21.60;99.90
16305;DHT22;8261;47.678;-122.174;2022-07-17T01:19:22;21.60;99.90
16305;DHT22;8261;47.678;-122.174;2022-07-17T01:21:58;21.40;99.90
16305;DHT22;8261;47.678;-122.174;2022-07-17T01:24:30;21.40;99.90
16305;DHT22;8261;47.678;-122.174;2022-07-17T01:27:01;21.40;99.90
16305;DHT22;8261;47.678;-122.174;2022-07-17T01:29:36;21.40;99.90
16305;DHT22;8261;47.678;-122.174;2022-07-17T01:32:07;21.40;99.90
16305;DHT22;8261;47.678;-122.174;2022-07-17T01:34:48;21.20;99.90
16305;DHT22;8261;47.678;-122.174;2022-07-17T01:37:24;21.20;99.90
16305;DHT22;8261;47.678;-122.174;2022-07-17T01:39:56;21.20;99.90
16305;DHT22;8261;47.678;-122.174;2022-07-17T01:42:29;21.00;99.90
16305;DHT22;8261;47.678;-122.174;2022-07-17T01:45:02;20.90;99.90
16305;DHT22;8261;47.678;-122.174;2022-07-17T01:47:34;20.70;99.90
16305;DHT22;8261;47.678;-122.174;2022-07-17T01:50:08;20.70;99.90
16305;DHT22;8261;47.678;-122.174;2022-07-17T01:52:45;20.60;99.90
16305;DHT22;8261;47.678;-122.174;2022-07-17T01:55:16;20.70;99.90
16305;DHT22;8261;47.678;-122.174;2022-07-17T01:57:49;20.60;99.90
16305;DHT22;8261;47.678;-122.174;2022-07-17T02:00:21;20.60;99.90
16305;DHT22;8261;47.678;-122.174;2022-07-17T02:02:54;20.50;99.90
16305;DHT22;8261;47.678;-122.174;2022-07-17T02:05:26;20.50;99.90
16305;DHT22;8261;47.678;-122.174;2022-07-17T02:08:01;20.40;99.90
16305;DHT22;8261;47.678;-122.174;2022-07-17T02:10:34;20.40;99.90
16305;DHT22;8261;47.678;-122.174;2022-07-17T02:13:08;20.20;99.90
16305;DHT22;8261;47.678;-122.174;2022-07-17T02:15:40;20.10;99.90
16305;DHT22;8261;47.678;-122.174;2022-07-17T02:18:11;20.10;99.90
16305;DHT22;8261;47.678;-122.174;2022-07-17T02:20:43;20.00;99.90
16305;DHT22;8261;47.678;-122.174;2022-07-17T02:23:31;19.90;99.90
16305;DHT22;8261;47.678;-122.174;2022-07-17T02:26:02;19.90;99.90
16305;DHT22;8261;47.678;-122.174;2022-07-17T02:28:43;19.90;99.90
16305;DHT22;8261;47.678;-122.174;2022-07-17T02:31:14;19.90;99.90
16305;DHT22;8261;47.678;-122.174;2022-07-17T02:33:48;19.90;99.90
16305;DHT22;8261;47.678;-122.174;2022-07-17T02:36:28;19.90;99.90
16305;DHT22;8261;47.678;-122.174;2022-07-17T02:39:03;19.80;99.90
16305;DHT22;8261;47.678;-122.174;2022-07-17T02:41:35;19.80;99.90
16305;DHT22;8261;47.678;-122.174;2022-07-17T02:44:08;19.70;99.90
16305;DHT22;8261;47.678;-122.174;2022-07-17T02:46:40;19.70;99.90
16305;DHT22;8261;47.678;-122.174;2022-07-17T02:49:12;19.60;99.90
16305;DHT22;8261;47.678;-122.174;2022-07-17T02:51:43;19.60;99.90
16305;DHT22;8261;47.678;-122.174;2022-07-17T02:54:18;19.50;99.90
16305;DHT22;8261;47.678;-122.174;2022-07-17T02:56:51;19.40;99.90
16305;DHT22;8261;47.678;-122.174;2022-07-17T02:59:24;19.40;99.90
16305;DHT22;8261;47.678;-122.174;2022-07-17T03:01:56;19.30;99.90
16305;DHT22;8261;47.678;-122.174;2022-07-17T03:04:30;19.30;99.90
16305;DHT22;8261;47.678;-122.174;2022-07-17T03:07:02;19.20;99.90
16305;DHT22;8261;47.678;-122.174;2022-07-17T03:09:37;19.20;99.90
16305;DHT22;8261;47.678;-122.174;2022-07-17T03:12:12;19.10;99.90
16305;DHT22;8261;47.678;-122.174;2022-07-17T03:14:44;19.10;99.90
16305;DHT22;8261;47.678;-122.174;2022-07-17T03:17:16;19.00;99.90
16305;DHT22;8261;47.678;-122.174;2022-07-17T03:19:49;18.90;99.90
16305;DHT22;8261;47.678;-122.174;2022-07-17T03:22:21;18.90;99.90
16305;DHT22;8261;47.678;-122.174;2022-07-17T03:24:56;18.90;99.90
16305;DHT22;8261;47.678;-122.174;2022-07-17T03:27:30;18.80;99.90
16305;DHT22;8261;47.678;-122.174;2022-07-17T03:30:02;18.70;99.90
16305;DHT22;8261;47.678;-122.174;2022-07-17T03:32:34;18.60;99.90
16305;DHT22;8261;47.678;-122.174;2022-07-17T03:35:06;18.50;99.90
16305;DHT22;8261;47.678;-122.174;2022-07-17T03:37:42;18.50;99.90
16305;DHT22;8261;47.678;-122.174;2022-07-17T03:40:26;18.50;99.90
16305;DHT22;8261;47.678;-122.174;2022-07-17T03:42:58;18.40;99.90
16305;DHT22;8261;47.678;-122.174;2022-07-17T03:45:32;18.40;99.90
16305;DHT22;8261;47.678;-122.174;2022-07-17T03:48:04;18.40;99.90
16305;DHT22;8261;47.678;-122.174;2022-07-17T03:50:36;18.30;99.90
16305;DHT22;8261;47.678;-122.174;2022-07-17T03:53:09;18.30;99.90
16305;DHT22;8261;47.678;-122.174;2022-07-17T03:55:44;18.20;99.90
16305;DHT22;8261;47.678;-122.174;2022-07-17T03:58:16;18.10;99.90
16305;DHT22;8261;47.678;-122.174;2022-07-17T04:00:48;18.00;99.90
16305;DHT22;8261;47.678;-122.174;2022-07-17T04:03:20;18.00;99.90
16305;DHT22;8261;47.678;-122.174;2022-07-17T04:05:52;17.90;99.90
16305;DHT22;8261;47.678;-122.174;2022-07-17T04:08:24;17.80;99.90
16305;DHT22;8261;47.678;-122.174;2022-07-17T04:10:58;17.80;99.90
16305;DHT22;8261;47.678;-122.174;2022-07-17T04:13:37;17.80;99.90
16305;DHT22;8261;47.678;-122.174;2022-07-17T04:16:09;17.70;99.90
16305;DHT22;8261;47.678;-122.174;2022-07-17T04:18:40;17.60;99.90
16305;DHT22;8261;47.678;-122.174;2022-07-17T04:21:12;17.50;99.90
16305;DHT22;8261;47.678;-122.174;2022-07-17T04:23:44;17.50;99.90
16305;DHT22;8261;47.678;-122.174;2022-07-17T04:26:19;17.40;99.90
16305;DHT22;8261;47.678;-122.174;2022-07-17T04:28:52;17.50;99.90
16305;DHT22;8261;47.678;-122.174;2022-07-17T04:31:24;17.40;99.90
16305;DHT22;8261;47.678;-122.174;2022-07-17T04:34:00;17.40;99.90
16305;DHT22;8261;47.678;-122.174;2022-07-17T04:36:33;17.30;99.90
16305;DHT22;8261;47.678;-122.174;2022-07-17T04:39:05;17.40;99.90
16305;DHT22;8261;47.678;-122.174;2022-07-17T04:41:44;17.30;99.90
16305;DHT22;8261;47.678;-122.174;2022-07-17T04:44:16;17.30;99.90
16305;DHT22;8261;47.678;-122.174;2022-07-17T04:46:49;17.30;99.90
16305;DHT22;8261;47.678;-122.174;2022-07-17T04:49:21;17.30;99.90
16305;DHT22;8261;47.678;-122.174;2022-07-17T04:51:52;17.30;99.90
16305;DHT22;8261;47.678;-122.174;2022-07-17T04:54:23;17.30;99.90
16305;DHT22;8261;47.678;-122.174;2022-07-17T04:57:07;17.20;99.90
16305;DHT22;8261;47.678;-122.174;2022-07-17T04:59:39;17.10;99.90
16305;DHT22;8261;47.678;-122.174;2022-07-17T05:02:14;17.10;99.90
16305;DHT22;8261;47.678;-122.174;2022-07-17T05:04:45;17.00;99.90
16305;DHT22;8261;47.678;-122.174;2022-07-17T05:07:16;16.90;99.90
16305;DHT22;8261;47.678;-122.174;2022-07-17T05:09:48;16.90;99.90
16305;DHT22;8261;47.678;-122.174;2022-07-17T05:12:21;16.90;99.90
16305;DHT22;8261;47.678;-122.174;2022-07-17T05:14:53;16.80;99.90
16305;DHT22;8261;47.678;-122.174;2022-07-17T05:17:25;16.80;99.90
16305;DHT22;8261;47.678;-122.174;2022-07-17T05:19:57;16.80;99.90
16305;DHT22;8261;47.678;-122.174;2022-07-17T05:22:29;16.70;99.90
16305;DHT22;8261;47.678;-122.174;2022-07-17T05:25:10;16.70;99.90
16305;DHT22;8261;47.678;-122.174;2022-07-17T05:28:00;16.70;99.90
16305;DHT22;8261;47.678;-122.174;2022-07-17T05:30:35;16.70;99.90
16305;DHT22;8261;47.678;-122.174;2022-07-17T05:33:08;16.70;99.90
16305;DHT22;8261;47.678;-122.174;2022-07-17T05:35:43;16.70;99.90
16305;DHT22;8261;47.678;-122.174;2022-07-17T05:38:19;16.70;99.90
16305;DHT22;8261;47.678;-122.174;2022-07-17T05:40:52;16.60;99.90
16305;DHT22;8261;47.678;-122.174;2022-07-17T05:43:27;16.60;99.90
16305;DHT22;8261;47.678;-122.174;2022-07-17T05:46:16;16.60;99.90
16305;DHT22;8261;47.678;-122.174;2022-07-17T05:48:56;16.60;99.90
16305;DHT22;8261;47.678;-122.174;2022-07-17T05:51:31;16.50;99.90
16305;DHT22;8261;47.678;-122.174;2022-07-17T05:54:17;16.40;99.90
16305;DHT22;8261;47.678;-122.174;2022-07-17T05:56:49;16.40;99.90
16305;DHT22;8261;47.678;-122.174;2022-07-17T05:59:22;16.40;99.90
16305;DHT22;8261;47.678;-122.174;2022-07-17T06:02:09;16.30;99.90
16305;DHT22;8261;47.678;-122.174;2022-07-17T06:04:42;16.30;99.90
16305;DHT22;8261;47.678;-122.174;2022-07-17T06:07:28;16.30;99.90
16305;DHT22;8261;47.678;-122.174;2022-07-17T06:10:00;16.30;99.90
16305;DHT22;8261;47.678;-122.174;2022-07-17T06:12:31;16.20;99.90
16305;DHT22;8261;47.678;-122.174;2022-07-17T06:15:06;16.10;99.90
16305;DHT22;8261;47.678;-122.174;2022-07-17T06:17:38;16.20;99.90
16305;DHT22;8261;47.678;-122.174;2022-07-17T06:20:12;16.10;99.90
16305;DHT22;8261;47.678;-122.174;2022-07-17T06:22:45;16.20;99.90
16305;DHT22;8261;47.678;-122.174;2022-07-17T06:25:16;16.10;99.90
16305;DHT22;8261;47.678;-122.174;2022-07-17T06:27:48;16.10;99.90
16305;DHT22;8261;47.678;-122.174;2022-07-17T06:30:21;16.10;99.90
16305;DHT22;8261;47.678;-122.174;2022-07-17T06:32:53;16.10;99.90
16305;DHT22;8261;47.678;-122.174;2022-07-17T06:35:24;16.00;99.90
16305;DHT22;8261;47.678;-122.174;2022-07-17T06:37:56;16.00;99.90
16305;DHT22;8261;47.678;-122.174;2022-07-17T06:40:28;15.90;99.90
16305;DHT22;8261;47.678;-122.174;2022-07-17T06:43:00;15.90;99.90
16305;DHT22;8261;47.678;-122.174;2022-07-17T06:45:40;15.90;99.90
16305;DHT22;8261;47.678;-122.174;2022-07-17T06:48:12;15.80;99.90
16305;DHT22;8261;47.678;-122.174;2022-07-17T06:50:44;15.80;99.90
16305;DHT22;8261;47.678;-122.174;2022-07-17T06:53:16;15.80;99.90
16305;DHT22;8261;47.678;-122.174;2022-07-17T06:55:48;15.70;99.90
16305;DHT22;8261;47.678;-122.174;2022-07-17T06:58:21;15.70;99.90
16305;DHT22;8261;47.678;-122.174;2022-07-17T07:00:56;15.70;99.90
16305;DHT22;8261;47.678;-122.174;2022-07-17T07:03:28;15.70;99.90
16305;DHT22;8261;47.678;-122.174;2022-07-17T07:06:00;15.70;99.90
16305;DHT22;8261;47.678;-122.174;2022-07-17T07:08:34;15.70;99.90
16305;DHT22;8261;47.678;-122.174;2022-07-17T07:11:05;15.70;99.90
16305;DHT22;8261;47.678;-122.174;2022-07-17T07:13:36;15.70;99.90
16305;DHT22;8261;47.678;-122.174;2022-07-17T07:16:10;15.70;99.90
16305;DHT22;8261;47.678;-122.174;2022-07-17T07:18:41;15.70;99.90
16305;DHT22;8261;47.678;-122.174;2022-07-17T07:21:13;15.70;99.90
16305;DHT22;8261;47.678;-122.174;2022-07-17T07:23:46;15.60;99.90
16305;DHT22;8261;47.678;-122.174;2022-07-17T07:26:19;15.60;99.90
16305;DHT22;8261;47.678;-122.174;2022-07-17T07:28:51;15.60;99.90
16305;DHT22;8261;47.678;-122.174;2022-07-17T07:31:24;15.60;99.90
16305;DHT22;8261;47.678;-122.174;2022-07-17T07:33:56;15.70;99.90
16305;DHT22;8261;47.678;-122.174;2022-07-17T07:36:28;15.70;99.90
16305;DHT22;8261;47.678;-122.174;2022-07-17T07:39:00;15.60;99.90
16305;DHT22;8261;47.678;-122.174;2022-07-17T07:41:33;15.60;99.90
16305;DHT22;8261;47.678;-122.174;2022-07-17T07:44:07;15.50;99.90
16305;DHT22;8261;47.678;-122.174;2022-07-17T07:46:40;15.50;99.90
16305;DHT22;8261;47.678;-122.174;2022-07-17T07:49:17;15.40;99.90
16305;DHT22;8261;47.678;-122.174;2022-07-17T07:51:49;15.30;99.90
16305;DHT22;8261;47.678;-122.174;2022-07-17T07:54:31;15.40;99.90
16305;DHT22;8261;47.678;-122.174;2022-07-17T07:57:03;15.30;99.90
16305;DHT22;8261;47.678;-122.174;2022-07-17T07:59:35;15.30;99.90
16305;DHT22;8261;47.678;-122.174;2022-07-17T08:02:09;15.30;99.90
16305;DHT22;8261;47.678;-122.174;2022-07-17T08:04:41;15.30;99.90
16305;DHT22;8261;47.678;-122.174;2022-07-17T08:07:13;15.20;99.90
16305;DHT22;8261;47.678;-122.174;2022-07-17T08:09:43;15.20;99.90
16305;DHT22;8261;47.678;-122.174;2022-07-17T08:12:17;15.20;99.90
16305;DHT22;8261;47.678;-122.174;2022-07-17T08:15:14;15.20;99.90
16305;DHT22;8261;47.678;-122.174;2022-07-17T08:17:50;15.20;99.90
16305;DHT22;8261;47.678;-122.174;2022-07-17T08:20:25;15.20;99.90
16305;DHT22;8261;47.678;-122.174;2022-07-17T08:22:58;15.20;99.90
16305;DHT22;8261;47.678;-122.174;2022-07-17T08:25:33;15.20;99.90
16305;DHT22;8261;47.678;-122.174;2022-07-17T08:28:05;15.20;99.90
16305;DHT22;8261;47.678;-122.174;2022-07-17T08:30:37;15.20;99.90
16305;DHT22;8261;47.678;-122.174;2022-07-17T08:33:11;15.20;99.90
16305;DHT22;8261;47.678;-122.174;2022-07-17T08:35:44;15.20;99.90
16305;DHT22;8261;47.678;-122.174;2022-07-17T08:38:20;15.10;99.90
16305;DHT22;8261;47.678;-122.174;2022-07-17T08:41:04;15.10;99.90
16305;DHT22;8261;47.678;-122.174;2022-07-17T08:43:39;15.10;99.90
16305;DHT22;8261;47.678;-122.174;2022-07-17T08:46:12;15.10;99.90
16305;DHT22;8261;47.678;-122.174;2022-07-17T08:48:50;15.10;99.90
16305;DHT22;8261;47.678;-122.174;2022-07-17T08:51:25;15.10;99.90
16305;DHT22;8261;47.678;-122.174;2022-07-17T08:53:58;15.10;99.90
16305;DHT22;8261;47.678;-122.174;2022-07-17T08:56:30;15.10;99.90
16305;DHT22;8261;47.678;-122.174;2022-07-17T08:59:02;15.10;99.90
16305;DHT22;8261;47.678;-122.174;2022-07-17T09:01:34;15.10;99.90
16305;DHT22;8261;47.678;-122.174;2022-07-17T09:04:10;15.10;99.90
16305;DHT22;8261;47.678;-122.174;2022-07-17T09:06:41;15.10;99.90
16305;DHT22;8261;47.678;-122.174;2022-07-17T09:09:13;15.00;99.90
16305;DHT22;8261;47.678;-122.174;2022-07-17T09:11:49;15.00;99.90
16305;DHT22;8261;47.678;-122.174;2022-07-17T09:14:21;15.10;99.90
16305;DHT22;8261;47.678;-122.174;2022-07-17T09:16:55;15.00;99.90
16305;DHT22;8261;47.678;-122.174;2022-07-17T09:19:35;15.00;99.90
16305;DHT22;8261;47.678;-122.174;2022-07-17T09:22:09;15.00;99.90
16305;DHT22;8261;47.678;-122.174;2022-07-17T09:24:45;15.00;99.90
16305;DHT22;8261;47.678;-122.174;2022-07-17T09:27:29;14.90;99.90
16305;DHT22;8261;47.678;-122.174;2022-07-17T09:30:03;14.80;99.90
16305;DHT22;8261;47.678;-122.174;2022-07-17T09:32:37;14.80;99.90
16305;DHT22;8261;47.678;-122.174;2022-07-17T09:35:13;14.80;99.90
16305;DHT22;8261;47.678;-122.174;2022-07-17T09:37:45;14.80;99.90
16305;DHT22;8261;47.678;-122.174;2022-07-17T09:40:21;14.80;99.90
16305;DHT22;8261;47.678;-122.174;2022-07-17T09:43:09;14.80;99.90
16305;DHT22;8261;47.678;-122.174;2022-07-17T09:45:42;14.90;99.90
16305;DHT22;8261;47.678;-122.174;2022-07-17T09:48:15;14.90;99.90
16305;DHT22;8261;47.678;-122.174;2022-07-17T09:50:51;14.90;99.90
16305;DHT22;8261;47.678;-122.174;2022-07-17T09:53:23;14.90;99.90
16305;DHT22;8261;47.678;-122.174;2022-07-17T09:55:56;15.00;99.90
16305;DHT22;8261;47.678;-122.174;2022-07-17T09:58:36;15.00;99.90
16305;DHT22;8261;47.678;-122.174;2022-07-17T10:01:13;14.90;99.90
16305;DHT22;8261;47.678;-122.174;2022-07-17T10:03:45;14.90;99.90
16305;DHT22;8261;47.678;-122.174;2022-07-17T10:06:20;14.80;99.90
16305;DHT22;8261;47.678;-122.174;2022-07-17T10:08:55;14.90;99.90
16305;DHT22;8261;47.678;-122.174;2022-07-17T10:11:29;14.90;99.90
16305;DHT22;8261;47.678;-122.174;2022-07-17T10:14:15;14.90;99.90
16305;DHT22;8261;47.678;-122.174;2022-07-17T10:16:47;14.90;99.90
16305;DHT22;8261;47.678;-122.174;2022-07-17T10:19:20;14.90;99.90
16305;DHT22;8261;47.678;-122.174;2022-07-17T10:21:58;14.90;99.90
16305;DHT22;8261;47.678;-122.174;2022-07-17T10:24:47;14.90;99.90
16305;DHT22;8261;47.678;-122.174;2022-07-17T10:27:21;14.90;99.90
16305;DHT22;8261;47.678;-122.174;2022-07-17T10:30:00;14.80;99.90
16305;DHT22;8261;47.678;-122.174;2022-07-17T10:32:33;14.80;99.90
16305;DHT22;8261;47.678;-122.174;2022-07-17T10:35:06;14.80;99.90
16305;DHT22;8261;47.678;-122.174;2022-07-17T10:37:43;14.80;99.90
16305;DHT22;8261;47.678;-122.174;2022-07-17T10:40:20;14.80;99.90
16305;DHT22;8261;47.678;-122.174;2022-07-17T10:42:55;14.80;99.90
16305;DHT22;8261;47.678;-122.174;2022-07-17T10:45:38;14.80;99.90
16305;DHT22;8261;47.678;-122.174;2022-07-17T10:48:12;14.80;99.90
16305;DHT22;8261;47.678;-122.174;2022-07-17T10:50:47;14.80;99.90
16305;DHT22;8261;47.678;-122.174;2022-07-17T10:53:23;14.80;99.90
16305;DHT22;8261;47.678;-122.174;2022-07-17T10:55:57;14.90;99.90
16305;DHT22;8261;47.678;-122.174;2022-07-17T10:58:31;14.90;99.90
16305;DHT22;8261;47.678;-122.174;2022-07-17T11:01:06;14.90;99.90
16305;DHT22;8261;47.678;-122.174;2022-07-17T11:03:42;15.00;99.90
16305;DHT22;8261;47.678;-122.174;2022-07-17T11:06:16;14.90;99.90
16305;DHT22;8261;47.678;-122.174;2022-07-17T11:08:54;14.90;99.90
16305;DHT22;8261;47.678;-122.174;2022-07-17T11:11:40;14.90;99.90
16305;DHT22;8261;47.678;-122.174;2022-07-17T11:14:13;14.90;99.90
16305;DHT22;8261;47.678;-122.174;2022-07-17T11:16:45;14.90;99.90
16305;DHT22;8261;47.678;-122.174;2022-07-17T11:19:23;14.90;99.90
16305;DHT22;8261;47.678;-122.174;2022-07-17T11:21:56;14.90;99.90
16305;DHT22;8261;47.678;-122.174;2022-07-17T11:24:39;14.90;99.90
16305;DHT22;8261;47.678;-122.174;2022-07-17T11:27:17;14.80;99.90
16305;DHT22;8261;47.678;-122.174;2022-07-17T11:29:51;14.90;99.90
16305;DHT22;8261;47.678;-122.174;2022-07-17T11:32:23;14.90;99.90
16305;DHT22;8261;47.678;-122.174;2022-07-17T11:34:55;14.80;99.90
16305;DHT22;8261;47.678;-122.174;2022-07-17T11:37:49;14.80;99.90
16305;DHT22;8261;47.678;-122.174;2022-07-17T11:40:23;14.90;99.90
16305;DHT22;8261;47.678;-122.174;2022-07-17T11:43:00;14.90;99.90
16305;DHT22;8261;47.678;-122.174;2022-07-17T11:45:33;14.80;99.90
16305;DHT22;8261;47.678;-122.174;2022-07-17T11:48:07;14.90;99.90
16305;DHT22;8261;47.678;-122.174;2022-07-17T11:50:39;14.90;99.90
16305;DHT22;8261;47.678;-122.174;2022-07-17T11:53:10;14.90;99.90
16305;DHT22;8261;47.678;-122.174;2022-07-17T11:55:44;14.80;99.90
16305;DHT22;8261;47.678;-122.174;2022-07-17T11:58:15;14.80;99.90
16305;DHT22;8261;47.678;-122.174;2022-07-17T12:01:01;14.80;99.90
16305;DHT22;8261;47.678;-122.174;2022-07-17T12:03:32;14.70;99.90
16305;DHT22;8261;47.678;-122.174;2022-07-17T12:06:04;14.70;99.90
16305;DHT22;8261;47.678;-122.174;2022-07-17T12:08:36;14.70;99.90
16305;DHT22;8261;47.678;-122.174;2022-07-17T12:11:13;14.70;99.90
16305;DHT22;8261;47.678;-122.174;2022-07-17T12:13:46;14.70;99.90
16305;DHT22;8261;47.678;-122.174;2022-07-17T12:16:27;14.70;99.90
16305;DHT22;8261;47.678;-122.174;2022-07-17T12:19:05;14.60;99.90
16305;DHT22;8261;47.678;-122.174;2022-07-17T12:21:54;14.70;99.90
16305;DHT22;8261;47.678;-122.174;2022-07-17T12:24:30;14.70;99.90
16305;DHT22;8261;47.678;-122.174;2022-07-17T12:27:07;14.70;99.90
16305;DHT22;8261;47.678;-122.174;2022-07-17T12:29:41;14.70;99.90
16305;DHT22;8261;47.678;-122.174;2022-07-17T12:32:17;14.60;99.90
16305;DHT22;8261;47.678;-122.174;2022-07-17T12:34:49;14.60;99.90
16305;DHT22;8261;47.678;-122.174;2022-07-17T12:37:28;14.60;99.90
16305;DHT22;8261;47.678;-122.174;2022-07-17T12:39:59;14.70;99.90
16305;DHT22;8261;47.678;-122.174;2022-07-17T12:42:34;14.60;99.90
16305;DHT22;8261;47.678;-122.174;2022-07-17T12:45:06;14.60;99.90
16305;DHT22;8261;47.678;-122.174;2022-07-17T12:47:37;14.70;99.90
16305;DHT22;8261;47.678;-122.174;2022-07-17T12:50:09;14.70;99.90
16305;DHT22;8261;47.678;-122.174;2022-07-17T12:52:42;14.70;99.90
16305;DHT22;8261;47.678;-122.174;2022-07-17T12:55:13;14.70;99.90
16305;DHT22;8261;47.678;-122.174;2022-07-17T12:57:48;14.70;99.90
16305;DHT22;8261;47.678;-122.174;2022-07-17T13:00:20;14.70;99.90
16305;DHT22;8261;47.678;-122.174;2022-07-17T13:02:51;14.70;99.90
16305;DHT22;8261;47.678;-122.174;2022-07-17T13:05:29;14.60;99.90
16305;DHT22;8261;47.678;-122.174;2022-07-17T13:08:00;14.70;99.90
16305;DHT22;8261;47.678;-122.174;2022-07-17T13:10:34;14.70;99.90
16305;DHT22;8261;47.678;-122.174;2022-07-17T13:13:09;14.60;99.90
16305;DHT22;8261;47.678;-122.174;2022-07-17T13:15:41;14.60;99.90
16305;DHT22;8261;47.678;-122.174;2022-07-17T13:18:13;14.60;99.90
16305;DHT22;8261;47.678;-122.174;2022-07-17T13:20:45;14.70;99.90
16305;DHT22;8261;47.678;-122.174;2022-07-17T13:23:17;14.70;99.90
16305;DHT22;8261;47.678;-122.174;2022-07-17T13:25:49;14.70;99.90
16305;DHT22;8261;47.678;-122.174;2022-07-17T13:28:24;14.70;99.90
16305;DHT22;8261;47.678;-122.174;2022-07-17T13:30:57;14.60;99.90
16305;DHT22;8261;47.678;-122.174;2022-07-17T13:33:28;14.60;99.90
16305;DHT22;8261;47.678;-122.174;2022-07-17T13:36:01;14.60;99.90
16305;DHT22;8261;47.678;-122.174;2022-07-17T13:38:34;14.70;99.90
16305;DHT22;8261;47.678;-122.174;2022-07-17T13:41:06;14.60;99.90
16305;DHT22;8261;47.678;-122.174;2022-07-17T13:43:39;14.60;99.90
16305;DHT22;8261;47.678;-122.174;2022-07-17T13:46:12;14.60;99.90
16305;DHT22;8261;47.678;-122.174;2022-07-17T13:48:44;14.70;99.90
16305;DHT22;8261;47.678;-122.174;2022-07-17T13:51:16;14.70;99.90
16305;DHT22;8261;47.678;-122.174;2022-07-17T13:53:48;14.80;99.90
16305;DHT22;8261;47.678;-122.174;2022-07-17T13:56:20;14.80;99.90
16305;DHT22;8261;47.678;-122.174;2022-07-17T13:58:54;14.70;99.90
16305;DHT22;8261;47.678;-122.174;2022-07-17T14:01:26;14.70;99.90
16305;DHT22;8261;47.678;-122.174;2022-07-17T14:04:01;14.70;99.90
16305;DHT22;8261;47.678;-122.174;2022-07-17T14:06:34;14.70;99.90
16305;DHT22;8261;47.678;-122.174;2022-07-17T14:09:06;14.70;99.90
16305;DHT22;8261;47.678;-122.174;2022-07-17T14:11:40;14.90;99.90
16305;DHT22;8261;47.678;-122.174;2022-07-17T14:14:29;14.90;99.90
16305;DHT22;8261;47.678;-122.174;2022-07-17T14:17:01;14.90;99.90
16305;DHT22;8261;47.678;-122.174;2022-07-17T14:19:36;14.90;99.90
16305;DHT22;8261;47.678;-122.174;2022-07-17T14:22:09;15.00;99.90
16305;DHT22;8261;47.678;-122.174;2022-07-17T14:24:41;15.00;99.90
16305;DHT22;8261;47.678;-122.174;2022-07-17T14:27:13;15.00;99.90
16305;DHT22;8261;47.678;-122.174;2022-07-17T14:29:47;15.00;99.90
16305;DHT22;8261;47.678;-122.174;2022-07-17T14:32:19;15.10;99.90
16305;DHT22;8261;47.678;-122.174;2022-07-17T14:34:53;15.10;99.90
16305;DHT22;8261;47.678;-122.174;2022-07-17T14:37:34;15.20;99.90
16305;DHT22;8261;47.678;-122.174;2022-07-17T14:40:15;15.20;99.90
16305;DHT22;8261;47.678;-122.174;2022-07-17T14:42:47;15.20;99.90
16305;DHT22;8261;47.678;-122.174;2022-07-17T14:45:21;15.30;99.90
16305;DHT22;8261;47.678;-122.174;2022-07-17T14:47:53;15.40;99.90
16305;DHT22;8261;47.678;-122.174;2022-07-17T14:50:29;15.40;99.90
16305;DHT22;8261;47.678;-122.174;2022-07-17T14:53:00;15.50;99.90
16305;DHT22;8261;47.678;-122.174;2022-07-17T14:55:31;15.50;99.90
16305;DHT22;8261;47.678;-122.174;2022-07-17T14:58:07;15.60;99.90
16305;DHT22;8261;47.678;-122.174;2022-07-17T15:00:42;15.70;99.90
16305;DHT22;8261;47.678;-122.174;2022-07-17T15:03:13;15.70;99.90
16305;DHT22;8261;47.678;-122.174;2022-07-17T15:05:45;15.70;99.90
16305;DHT22;8261;47.678;-122.174;2022-07-17T15:08:18;15.80;99.90
16305;DHT22;8261;47.678;-122.174;2022-07-17T15:10:51;15.80;99.90
16305;DHT22;8261;47.678;-122.174;2022-07-17T15:13:26;15.80;99.90
16305;DHT22;8261;47.678;-122.174;2022-07-17T15:16:02;15.90;99.90
16305;DHT22;8261;47.678;-122.174;2022-07-17T15:18:33;16.00;99.90
16305;DHT22;8261;47.678;-122.174;2022-07-17T15:21:05;16.00;99.90
16305;DHT22;8261;47.678;-122.174;2022-07-17T15:23:57;16.00;99.90
16305;DHT22;8261;47.678;-122.174;2022-07-17T15:26:29;16.00;99.90
16305;DHT22;8261;47.678;-122.174;2022-07-17T15:29:01;16.10;99.90
16305;DHT22;8261;47.678;-122.174;2022-07-17T15:31:37;16.20;99.90
16305;DHT22;8261;47.678;-122.174;2022-07-17T15:34:14;16.30;99.90
16305;DHT22;8261;47.678;-122.174;2022-07-17T15:36:46;16.30;99.90
16305;DHT22;8261;47.678;-122.174;2022-07-17T15:39:23;16.30;99.90
16305;DHT22;8261;47.678;-122.174;2022-07-17T15:41:56;16.40;99.90
16305;DHT22;8261;47.678;-122.174;2022-07-17T15:44:27;16.40;99.90
16305;DHT22;8261;47.678;-122.174;2022-07-17T15:47:02;16.50;99.90